createdAt,value
2024-03-14T00:01:21.638Z,12.27
2024-03-14T00:03:48.228Z,12.26
2024-03-14T00:06:14.882Z,12.23
2024-03-14T00:08:41.480Z,12.33
2024-03-14T00:11:08.071Z,12.31
2024-03-14T00:13:34.772Z,12.50
2024-03-14T00:16:01.435Z,12.53
2024-03-14T00:18:28.125Z,12.63
2024-03-14T00:20:54.903Z,12.13
2024-03-14T00:23:21.477Z,12.53
2024-03-14T00:25:48.062Z,12.46
2024-03-14T00:28:14.715Z,12.15
2024-03-14T00:30:41.335Z,12.11
2024-03-14T00:33:08.030Z,12.27
2024-03-14T00:35:34.709Z,11.96
2024-03-14T00:38:01.403Z,11.94
2024-03-14T00:40:27.964Z,11.92
2024-03-14T00:42:54.509Z,12.00
2024-03-14T00:45:21.154Z,12.15
2024-03-14T00:47:47.942Z,12.07
2024-03-14T00:50:14.761Z,11.71
2024-03-14T00:52:41.399Z,11.51
2024-03-14T00:55:08.007Z,11.61
2024-03-14T00:57:34.694Z,11.50
2024-03-14T01:00:01.524Z,11.60
2024-03-14T01:02:28.209Z,11.66
2024-03-14T01:04:54.757Z,11.77
2024-03-14T01:07:21.374Z,11.71
2024-03-14T01:09:48.121Z,11.79
2024-03-14T01:12:14.731Z,11.70
2024-03-14T01:14:41.360Z,11.57
2024-03-14T01:17:08.017Z,11.50
2024-03-14T01:19:34.598Z,11.77
2024-03-14T01:22:01.264Z,11.98
2024-03-14T01:24:27.889Z,11.90
2024-03-14T01:26:54.642Z,12.13
2024-03-14T01:29:21.276Z,12.23
2024-03-14T01:31:47.873Z,12.37
2024-03-14T01:34:14.434Z,12.39
2024-03-14T01:36:41.444Z,12.25
2024-03-14T01:39:07.936Z,12.25
2024-03-14T01:41:34.404Z,12.33
2024-03-14T01:44:01.073Z,12.26
2024-03-14T01:46:27.533Z,12.27
2024-03-14T01:48:54.097Z,12.29
2024-03-14T01:51:20.572Z,12.34
2024-03-14T01:53:47.027Z,12.27
2024-03-14T01:56:13.501Z,12.27
2024-03-14T01:58:39.883Z,12.31
2024-03-14T02:01:06.332Z,12.18
2024-03-14T02:03:32.778Z,12.00
2024-03-14T02:05:59.287Z,11.91
2024-03-14T02:08:25.777Z,11.84
2024-03-14T02:10:52.179Z,11.77
2024-03-14T02:13:18.603Z,11.51
2024-03-14T02:15:45.075Z,11.37
2024-03-14T02:18:11.757Z,11.47
2024-03-14T02:20:38.198Z,11.60
2024-03-14T02:23:04.615Z,11.41
2024-03-14T02:25:31.054Z,11.31
2024-03-14T02:27:57.474Z,11.53
2024-03-14T02:30:23.933Z,11.57
2024-03-14T02:32:50.438Z,11.60
2024-03-14T02:35:17.092Z,11.64
2024-03-14T02:37:43.628Z,11.66
2024-03-14T02:40:10.191Z,11.75
2024-03-14T02:42:36.672Z,11.64
2024-03-14T02:45:03.170Z,11.50
2024-03-14T02:47:29.667Z,11.30
2024-03-14T02:49:56.089Z,11.43
2024-03-14T02:52:22.493Z,11.27
2024-03-14T02:54:48.888Z,11.40
2024-03-14T02:57:15.412Z,11.50
2024-03-14T02:59:41.863Z,11.38
2024-03-14T03:02:08.327Z,11.52
2024-03-14T03:04:34.750Z,11.60
2024-03-14T03:07:01.177Z,11.58
2024-03-14T03:09:27.647Z,11.54
2024-03-14T03:11:54.156Z,11.56
2024-03-14T03:14:21.956Z,11.60
2024-03-14T03:16:48.449Z,11.55
2024-03-14T03:19:14.856Z,11.56
2024-03-14T03:21:41.265Z,11.50
2024-03-14T03:24:07.735Z,11.53
2024-03-14T03:26:34.170Z,11.51
2024-03-14T03:29:00.584Z,11.45
2024-03-14T03:31:26.987Z,11.42
2024-03-14T03:33:53.479Z,11.40
2024-03-14T03:36:19.989Z,11.42
2024-03-14T03:38:46.484Z,11.49
2024-03-14T03:41:13.081Z,11.49
2024-03-14T03:43:39.712Z,11.46
2024-03-14T03:46:06.343Z,11.42
2024-03-14T03:48:32.958Z,11.41
2024-03-14T03:50:59.588Z,11.33
2024-03-14T03:53:26.132Z,11.37
2024-03-14T03:55:52.734Z,11.21
2024-03-14T03:58:19.352Z,11.24
2024-03-14T04:00:45.947Z,10.81
2024-03-14T04:03:12.670Z,11.03
2024-03-14T04:05:39.398Z,11.02
2024-03-14T04:08:06.070Z,11.05
2024-03-14T04:10:32.696Z,11.07
2024-03-14T04:12:59.249Z,11.08
2024-03-14T04:15:25.967Z,10.93
2024-03-14T04:17:52.655Z,10.86
2024-03-14T04:20:19.242Z,10.98
2024-03-14T04:22:45.866Z,11.01
2024-03-14T04:25:12.472Z,10.94
2024-03-14T04:27:39.127Z,10.97
2024-03-14T04:30:05.777Z,10.91
2024-03-14T04:32:32.324Z,10.90
2024-03-14T04:34:58.860Z,10.72
2024-03-14T04:37:25.431Z,10.71
2024-03-14T04:39:52.001Z,10.70
2024-03-14T04:42:18.640Z,10.46
2024-03-14T04:44:45.181Z,10.63
2024-03-14T04:47:11.850Z,10.68
2024-03-14T04:49:38.405Z,10.73
2024-03-14T04:52:05.025Z,10.69
2024-03-14T04:54:31.685Z,10.71
2024-03-14T04:56:58.366Z,10.74
2024-03-14T04:59:24.996Z,10.71
2024-03-14T05:01:51.678Z,10.78
2024-03-14T05:04:18.226Z,10.79
2024-03-14T05:06:44.801Z,10.70
2024-03-14T05:09:11.443Z,10.78
2024-03-14T05:11:38.095Z,10.70
2024-03-14T05:14:04.748Z,10.81
2024-03-14T05:16:31.450Z,10.64
2024-03-14T05:18:58.263Z,10.62
2024-03-14T05:21:25.010Z,10.70
2024-03-14T05:23:51.671Z,10.70
2024-03-14T05:26:18.274Z,10.64
2024-03-14T05:28:44.818Z,10.68
2024-03-14T05:31:11.365Z,10.66
2024-03-14T05:33:38.136Z,10.85
2024-03-14T05:36:04.772Z,10.91
2024-03-14T05:38:31.420Z,10.01
2024-03-14T05:40:57.973Z,9.95
2024-03-14T05:43:24.512Z,9.38
2024-03-14T05:45:51.109Z,9.30
2024-03-14T05:48:17.809Z,9.80
2024-03-14T05:50:44.417Z,10.09
2024-03-14T05:53:11.041Z,10.30
2024-03-14T05:55:37.745Z,10.58
2024-03-14T05:58:04.403Z,10.54
2024-03-14T06:00:31.220Z,10.34
2024-03-14T06:02:58.023Z,10.55
2024-03-14T06:05:24.725Z,10.40
2024-03-14T06:07:51.261Z,10.42
2024-03-14T06:10:17.861Z,10.42
2024-03-14T06:12:44.483Z,10.12
2024-03-14T06:15:11.114Z,10.17
2024-03-14T06:17:37.944Z,10.12
2024-03-14T06:20:04.612Z,10.36
2024-03-14T06:22:31.164Z,10.20
2024-03-14T06:24:57.829Z,10.24
2024-03-14T06:27:24.483Z,10.42
2024-03-14T06:29:51.130Z,10.53
2024-03-14T06:32:17.763Z,10.51
2024-03-14T06:34:44.444Z,10.54
2024-03-14T06:37:11.048Z,10.77
2024-03-14T06:39:39.692Z,10.80
2024-03-14T06:42:06.692Z,10.85
2024-03-14T06:44:35.978Z,10.74
2024-03-14T06:47:02.610Z,10.39
2024-03-14T06:49:29.212Z,10.59
2024-03-14T06:51:55.780Z,10.81
2024-03-14T06:54:22.387Z,10.96
2024-03-14T06:56:49.216Z,10.62
2024-03-14T06:59:15.954Z,10.72
2024-03-14T07:01:42.610Z,10.89
2024-03-14T07:04:09.463Z,10.71
2024-03-14T07:06:36.326Z,10.78
2024-03-14T07:09:03.171Z,10.40
2024-03-14T07:11:30.042Z,10.42
2024-03-14T07:13:56.680Z,10.06
2024-03-14T07:16:23.285Z,9.83
2024-03-14T07:18:49.981Z,9.78
2024-03-14T07:21:16.723Z,9.68
2024-03-14T07:23:43.463Z,9.84
2024-03-14T07:26:10.162Z,9.63
2024-03-14T07:28:36.741Z,9.98
2024-03-14T07:31:11.765Z,10.38
2024-03-14T07:33:38.438Z,10.31
2024-03-14T07:36:05.032Z,10.41
2024-03-14T07:38:31.646Z,10.19
2024-03-14T07:40:58.232Z,9.80
2024-03-14T07:43:24.860Z,9.99
2024-03-14T07:45:51.478Z,9.76
2024-03-14T07:48:18.176Z,9.77
2024-03-14T07:50:44.886Z,10.21
2024-03-14T07:53:11.633Z,10.37
2024-03-14T07:55:38.331Z,10.81
2024-03-14T07:58:04.994Z,10.94
2024-03-14T08:00:31.630Z,11.31
2024-03-14T08:02:58.881Z,11.55
2024-03-14T08:05:25.521Z,11.83
2024-03-14T08:08:01.408Z,11.37
2024-03-14T08:10:36.857Z,11.23
2024-03-14T08:13:03.582Z,11.36
2024-03-14T08:15:30.234Z,10.89
2024-03-14T08:17:56.877Z,10.58
2024-03-14T08:20:23.620Z,10.85
2024-03-14T08:22:50.307Z,10.66
2024-03-14T08:25:19.448Z,10.90
2024-03-14T08:27:46.041Z,11.03
2024-03-14T08:30:12.911Z,11.37
2024-03-14T08:32:39.640Z,11.19
2024-03-14T08:35:06.578Z,11.13
2024-03-14T08:37:33.401Z,11.63
2024-03-14T08:39:59.836Z,11.37
2024-03-14T08:42:26.284Z,11.86
2024-03-14T08:44:53.529Z,11.70
2024-03-14T08:47:20.777Z,11.64
2024-03-14T08:49:47.215Z,11.80
2024-03-14T08:52:16.656Z,11.71
2024-03-14T08:54:43.147Z,11.38
2024-03-14T08:57:09.799Z,11.85
2024-03-14T08:59:36.245Z,12.07
2024-03-14T09:02:02.767Z,12.29
2024-03-14T09:04:29.193Z,12.01
2024-03-14T09:06:55.632Z,12.13
2024-03-14T09:09:22.061Z,12.20
2024-03-14T09:11:48.569Z,12.38
2024-03-14T09:14:15.127Z,11.70
2024-03-14T09:16:41.690Z,11.86
2024-03-14T09:19:08.534Z,12.12
2024-03-14T09:21:35.234Z,12.25
2024-03-14T09:24:01.774Z,12.17
2024-03-14T09:26:28.297Z,12.31
2024-03-14T09:28:54.752Z,12.82
2024-03-14T09:31:21.382Z,13.31
2024-03-14T09:33:48.166Z,13.74
2024-03-14T09:36:15.397Z,15.20
2024-03-14T09:38:42.227Z,17.32
2024-03-14T09:41:14.510Z,17.88
2024-03-14T09:43:48.198Z,18.41
2024-03-14T09:46:14.845Z,19.32
2024-03-14T09:48:41.472Z,19.65
2024-03-14T09:51:08.177Z,19.38
2024-03-14T09:53:34.815Z,20.30
2024-03-14T09:56:01.383Z,19.87
2024-03-14T09:58:27.982Z,20.23
2024-03-14T10:00:54.775Z,20.21
2024-03-14T10:03:21.494Z,19.91
2024-03-14T10:05:48.156Z,20.90
2024-03-14T10:08:14.899Z,22.28
2024-03-14T10:10:41.709Z,21.83
2024-03-14T10:13:08.423Z,21.46
2024-03-14T10:15:34.964Z,22.07
2024-03-14T10:18:01.868Z,21.67
2024-03-14T10:20:28.343Z,20.59
2024-03-14T10:22:54.891Z,21.31
2024-03-14T10:25:21.364Z,21.31
2024-03-14T10:27:53.566Z,21.21
2024-03-14T10:30:27.872Z,22.22
2024-03-14T10:32:54.412Z,21.21
2024-03-14T10:35:21.013Z,21.51
2024-03-14T10:37:47.586Z,22.47
2024-03-14T10:40:14.000Z,22.86
2024-03-14T10:42:40.472Z,21.71
2024-03-14T10:45:07.132Z,22.07
2024-03-14T10:47:33.646Z,21.58
2024-03-14T10:50:00.152Z,23.08
2024-03-14T10:52:26.655Z,22.29
2024-03-14T10:54:53.289Z,21.99
2024-03-14T10:57:19.824Z,21.72
2024-03-14T10:59:46.330Z,21.86
2024-03-14T11:02:12.813Z,21.26
2024-03-14T11:04:42.203Z,21.68
2024-03-14T11:07:08.636Z,22.61
2024-03-14T11:09:35.461Z,22.27
2024-03-14T11:12:02.223Z,21.77
2024-03-14T11:14:28.801Z,21.89
2024-03-14T11:16:57.579Z,23.08
2024-03-14T11:19:25.689Z,22.34
2024-03-14T11:21:52.359Z,22.16
2024-03-14T11:24:19.030Z,22.86
2024-03-14T11:26:45.656Z,21.12
2024-03-14T11:29:12.237Z,22.13
2024-03-14T11:31:38.812Z,20.77
2024-03-14T11:34:05.861Z,21.90
2024-03-14T11:36:32.836Z,20.83
2024-03-14T11:38:59.807Z,21.95
2024-03-14T11:41:26.382Z,20.45
2024-03-14T11:43:53.035Z,22.36
2024-03-14T11:46:19.671Z,18.67
2024-03-14T11:48:46.351Z,17.76
2024-03-14T11:51:13.109Z,17.60
2024-03-14T11:53:39.823Z,17.20
2024-03-14T11:56:11.342Z,16.49
2024-03-14T11:58:39.211Z,16.43
2024-03-14T12:01:06.181Z,16.43
2024-03-14T12:03:33.041Z,16.29
2024-03-14T12:05:59.861Z,15.90
2024-03-14T12:08:26.570Z,16.37
2024-03-14T12:10:54.412Z,16.31
2024-03-14T12:13:23.708Z,15.98
2024-03-14T12:15:50.371Z,16.43
2024-03-14T12:18:17.048Z,16.79
2024-03-14T12:20:43.790Z,16.86
2024-03-14T12:23:10.248Z,16.32
2024-03-14T12:25:36.757Z,16.25
2024-03-14T12:28:03.172Z,16.75
2024-03-14T12:30:29.641Z,16.11
2024-03-14T12:32:56.279Z,16.35
2024-03-14T12:35:23.045Z,16.74
2024-03-14T12:37:49.462Z,16.69
2024-03-14T12:40:18.471Z,16.72
2024-03-14T12:42:46.745Z,16.93
2024-03-14T12:45:13.224Z,16.45
2024-03-14T12:47:39.680Z,16.72
2024-03-14T12:50:06.238Z,15.90
2024-03-14T12:52:32.630Z,15.40
2024-03-14T12:54:59.072Z,15.79
2024-03-14T12:57:25.590Z,15.72
2024-03-14T12:59:52.014Z,16.17
2024-03-14T13:02:18.540Z,16.29
2024-03-14T13:04:44.965Z,16.87
2024-03-14T13:07:11.663Z,17.10
2024-03-14T13:09:38.246Z,16.64
2024-03-14T13:12:05.004Z,16.95
2024-03-14T13:14:31.678Z,16.90
2024-03-14T13:16:58.154Z,16.61
2024-03-14T13:19:24.670Z,17.06
2024-03-14T13:21:51.437Z,16.14
2024-03-14T13:24:18.809Z,16.12
2024-03-14T13:26:47.554Z,16.91
2024-03-14T13:29:14.146Z,17.53
2024-03-14T13:31:40.696Z,16.99
2024-03-14T13:34:07.586Z,17.33
2024-03-14T13:36:34.434Z,17.54
2024-03-14T13:39:01.222Z,17.47
2024-03-14T13:41:29.963Z,17.31
2024-03-14T13:43:56.718Z,17.46
2024-03-14T13:46:23.368Z,17.51
2024-03-14T13:48:50.044Z,17.41
2024-03-14T13:51:16.744Z,17.66
2024-03-14T13:53:43.407Z,17.52
2024-03-14T13:56:10.032Z,17.90
2024-03-14T13:58:36.646Z,17.92
2024-03-14T14:01:03.365Z,17.55
2024-03-14T14:03:30.076Z,17.78
2024-03-14T14:05:57.778Z,18.42
2024-03-14T14:08:24.770Z,18.67
2024-03-14T14:10:51.620Z,18.06
2024-03-14T14:13:18.326Z,18.14
2024-03-14T14:15:45.306Z,18.45
2024-03-14T14:18:12.260Z,18.16
2024-03-14T14:20:38.961Z,18.66
2024-03-14T14:23:05.790Z,18.46
2024-03-14T14:25:32.545Z,18.16
2024-03-14T14:27:59.276Z,18.24
2024-03-14T14:30:26.143Z,18.18
2024-03-14T14:32:52.998Z,17.94
2024-03-14T14:35:19.685Z,18.05
2024-03-14T14:37:46.704Z,17.90
2024-03-14T14:40:15.682Z,17.99
2024-03-14T14:42:42.526Z,18.16
2024-03-14T14:45:09.247Z,17.80
2024-03-14T14:47:35.864Z,17.97
2024-03-14T14:50:02.525Z,17.79
2024-03-14T14:52:29.273Z,17.97
2024-03-14T14:54:55.874Z,18.15
2024-03-14T14:57:22.457Z,18.08
2024-03-14T14:59:51.624Z,18.44
2024-03-14T15:02:18.195Z,18.99
2024-03-14T15:04:44.854Z,19.06
2024-03-14T15:07:11.670Z,19.31
2024-03-14T15:09:38.301Z,19.69
2024-03-14T15:12:05.350Z,19.14
2024-03-14T15:14:32.102Z,18.93
2024-03-14T15:16:58.781Z,19.25
2024-03-14T15:19:25.454Z,19.57
2024-03-14T15:21:51.979Z,19.40
2024-03-14T15:24:18.426Z,19.69
2024-03-14T15:26:44.937Z,19.11
2024-03-14T15:29:14.084Z,19.53
2024-03-14T15:31:40.501Z,19.54
2024-03-14T15:34:07.141Z,19.23
2024-03-14T15:36:33.613Z,19.42
2024-03-14T15:39:00.033Z,19.16
2024-03-14T15:41:26.571Z,19.34
2024-03-14T15:43:53.059Z,19.06
2024-03-14T15:46:19.746Z,19.11
2024-03-14T15:48:46.428Z,19.06
2024-03-14T15:51:12.965Z,18.96
2024-03-14T15:53:39.475Z,19.05
2024-03-14T15:56:05.905Z,18.62
2024-03-14T15:58:32.310Z,18.59
2024-03-14T16:00:58.838Z,18.27
2024-03-14T16:03:25.464Z,18.22
2024-03-14T16:05:51.920Z,18.44
2024-03-14T16:08:26.359Z,18.61
2024-03-14T16:10:58.370Z,18.47
2024-03-14T16:13:24.909Z,18.69
2024-03-14T16:15:51.646Z,18.60
2024-03-14T16:18:18.523Z,18.40
2024-03-14T16:20:49.172Z,18.22
2024-03-14T16:23:16.129Z,17.98
2024-03-14T16:25:42.763Z,18.11
2024-03-14T16:28:09.325Z,18.11
2024-03-14T16:30:36.139Z,17.60
2024-03-14T16:33:03.016Z,17.97
2024-03-14T16:35:30.340Z,18.13
2024-03-14T16:37:57.566Z,18.30
2024-03-14T16:40:24.230Z,18.13
2024-03-14T16:42:53.130Z,17.70
2024-03-14T16:45:19.910Z,17.90
2024-03-14T16:47:46.578Z,18.06
2024-03-14T16:50:14.616Z,18.26
2024-03-14T16:52:41.658Z,18.32
2024-03-14T16:55:08.366Z,18.41
2024-03-14T16:57:34.985Z,18.24
2024-03-14T17:00:01.680Z,18.01
2024-03-14T17:02:28.352Z,18.29
2024-03-14T17:04:54.911Z,18.32
2024-03-14T17:07:21.529Z,17.72
2024-03-14T17:09:48.330Z,17.81
2024-03-14T17:12:14.966Z,18.22
2024-03-14T17:14:41.591Z,17.87
2024-03-14T17:17:12.736Z,18.16
2024-03-14T17:19:39.975Z,18.04
2024-03-14T17:22:06.658Z,18.05
2024-03-14T17:24:33.318Z,18.12
2024-03-14T17:27:00.092Z,18.02
2024-03-14T17:29:26.747Z,17.93
2024-03-14T17:31:53.359Z,17.95
2024-03-14T17:34:20.175Z,17.90
2024-03-14T17:36:46.824Z,17.88
2024-03-14T17:39:13.393Z,18.09
2024-03-14T17:41:39.829Z,18.13
2024-03-14T17:44:06.271Z,18.16
2024-03-14T17:46:32.788Z,17.91
2024-03-14T17:48:59.277Z,17.90
2024-03-14T17:51:25.816Z,17.95
2024-03-14T17:53:52.331Z,18.09
2024-03-14T17:56:25.407Z,18.03
2024-03-14T17:58:56.768Z,17.92
2024-03-14T18:01:23.267Z,17.98
2024-03-14T18:03:49.756Z,17.68
2024-03-14T18:06:16.251Z,17.10
2024-03-14T18:08:42.787Z,17.46
2024-03-14T18:11:09.265Z,17.42
2024-03-14T18:13:35.859Z,17.44
2024-03-14T18:16:04.922Z,17.32
2024-03-14T18:18:31.612Z,17.14
2024-03-14T18:20:58.156Z,17.14
2024-03-14T18:23:24.615Z,17.21
2024-03-14T18:25:51.180Z,17.32
2024-03-14T18:28:17.595Z,17.40
2024-03-14T18:30:44.138Z,17.41
2024-03-14T18:33:10.790Z,17.44
2024-03-14T18:35:37.327Z,17.54
2024-03-14T18:38:04.211Z,17.44
2024-03-14T18:40:30.795Z,17.21
2024-03-14T18:42:57.364Z,17.25
2024-03-14T18:45:24.025Z,17.06
2024-03-14T18:47:50.737Z,16.95
2024-03-14T18:50:17.337Z,16.51
2024-03-14T18:52:43.906Z,17.03
2024-03-14T18:55:11.154Z,17.09
2024-03-14T18:57:41.287Z,17.21
2024-03-14T19:00:08.187Z,17.19
2024-03-14T19:02:35.241Z,16.76
2024-03-14T19:05:02.019Z,16.77
2024-03-14T19:07:28.686Z,16.87
2024-03-14T19:09:55.423Z,16.88
2024-03-14T19:12:22.136Z,16.88
2024-03-14T19:14:49.238Z,16.62
2024-03-14T19:17:19.521Z,16.82
2024-03-14T19:19:48.953Z,16.68
2024-03-14T19:22:15.614Z,16.77
2024-03-14T19:24:42.269Z,16.64
2024-03-14T19:27:08.981Z,16.67
2024-03-14T19:29:35.741Z,16.63
2024-03-14T19:32:02.355Z,16.65
2024-03-14T19:34:30.444Z,16.59
2024-03-14T19:37:00.405Z,16.71
2024-03-14T19:39:27.240Z,16.71
2024-03-14T19:41:54.117Z,16.67
2024-03-14T19:44:20.708Z,16.81
2024-03-14T19:46:47.275Z,16.78
2024-03-14T19:49:20.192Z,16.48
2024-03-14T19:51:46.905Z,16.58
2024-03-14T19:54:14.018Z,16.66
2024-03-14T19:56:40.673Z,16.70
2024-03-14T19:59:07.490Z,16.70
2024-03-14T20:01:34.269Z,16.79
2024-03-14T20:04:01.104Z,16.83
2024-03-14T20:06:28.058Z,16.76
2024-03-14T20:08:54.782Z,16.62
2024-03-14T20:11:21.401Z,16.65
2024-03-14T20:13:48.068Z,16.71
2024-03-14T20:16:15.142Z,16.77
2024-03-14T20:18:41.852Z,16.76
2024-03-14T20:21:08.910Z,16.67
2024-03-14T20:23:35.789Z,16.70
2024-03-14T20:26:04.566Z,16.77
2024-03-14T20:28:31.134Z,16.72
2024-03-14T20:30:57.909Z,16.72
2024-03-14T20:33:24.949Z,16.68
2024-03-14T20:35:51.966Z,16.64
2024-03-14T20:38:18.600Z,16.65
2024-03-14T20:40:52.458Z,16.53
2024-03-14T20:43:19.891Z,16.53
2024-03-14T20:45:46.563Z,16.31
2024-03-14T20:48:13.361Z,16.39
2024-03-14T20:50:43.690Z,16.38
2024-03-14T20:53:10.329Z,16.56
2024-03-14T20:55:37.222Z,16.33
2024-03-14T20:58:04.173Z,16.37
2024-03-14T21:00:30.979Z,16.37
2024-03-14T21:02:57.706Z,16.31
2024-03-14T21:05:24.299Z,16.35
2024-03-14T21:07:51.472Z,16.27
2024-03-14T21:10:20.168Z,16.24
2024-03-14T21:12:48.385Z,16.10
2024-03-14T21:15:19.174Z,16.19
2024-03-14T21:17:45.692Z,16.18
2024-03-14T21:20:12.151Z,16.32
2024-03-14T21:22:39.696Z,16.21
2024-03-14T21:25:06.173Z,16.32
2024-03-14T21:27:32.733Z,16.35
2024-03-14T21:29:59.223Z,16.19
2024-03-14T21:32:25.736Z,16.19
2024-03-14T21:34:52.236Z,16.23
2024-03-14T21:37:18.690Z,16.24
2024-03-14T21:39:45.441Z,16.17
2024-03-14T21:42:12.049Z,16.11
2024-03-14T21:44:40.715Z,16.18
2024-03-14T21:47:07.193Z,16.05
2024-03-14T21:49:33.622Z,16.07
2024-03-14T21:52:00.114Z,16.03
2024-03-14T21:54:26.564Z,15.98
2024-03-14T21:56:53.007Z,15.97
2024-03-14T21:59:19.579Z,15.86
2024-03-14T22:01:46.060Z,15.91
2024-03-14T22:04:12.697Z,15.76
2024-03-14T22:06:39.320Z,15.81
2024-03-14T22:09:05.947Z,15.83
2024-03-14T22:11:32.648Z,15.69
2024-03-14T22:13:59.275Z,15.59
2024-03-14T22:16:25.871Z,15.64
2024-03-14T22:18:52.499Z,15.62
2024-03-14T22:21:19.209Z,15.63
2024-03-14T22:23:45.851Z,15.65
2024-03-14T22:26:12.405Z,15.53
2024-03-14T22:28:38.948Z,15.52
2024-03-14T22:31:11.368Z,15.37
2024-03-14T22:33:39.118Z,15.50
2024-03-14T22:36:05.854Z,15.53
2024-03-14T22:38:32.463Z,15.47
2024-03-14T22:40:59.005Z,15.62
2024-03-14T22:43:25.548Z,15.51
2024-03-14T22:45:52.220Z,15.28
2024-03-14T22:48:18.898Z,15.28
2024-03-14T22:50:45.637Z,15.13
2024-03-14T22:53:12.204Z,15.18
2024-03-14T22:55:38.779Z,15.23
2024-03-14T22:58:05.349Z,15.19
2024-03-14T23:00:31.953Z,15.31
2024-03-14T23:02:58.923Z,15.26
2024-03-14T23:05:25.534Z,15.44
2024-03-14T23:07:52.133Z,15.39
2024-03-14T23:10:18.738Z,15.47
2024-03-14T23:12:45.383Z,15.41
2024-03-14T23:15:12.069Z,15.45
2024-03-14T23:17:38.719Z,15.43
2024-03-14T23:20:05.413Z,15.38
2024-03-14T23:22:32.028Z,15.20
2024-03-14T23:24:58.583Z,15.16
2024-03-14T23:27:25.169Z,15.26
2024-03-14T23:29:51.785Z,15.29
2024-03-14T23:32:18.531Z,15.31
2024-03-14T23:34:45.232Z,15.26
2024-03-14T23:37:12.053Z,15.14
2024-03-14T23:39:38.780Z,15.11
2024-03-14T23:42:05.440Z,15.17
2024-03-14T23:44:32.042Z,15.29
2024-03-14T23:46:58.587Z,15.21
2024-03-14T23:49:25.434Z,15.28
2024-03-14T23:51:52.013Z,15.26
2024-03-14T23:54:18.726Z,15.20
2024-03-14T23:56:45.295Z,15.02
2024-03-14T23:59:11.827Z,14.98
